59  °F
Temperature
36  °F
  Dewpoint
   Humidity
Temp | Dewpoint | Humidity
16  km/h
Wind Speed
10  mph
Wind Speed
9  kts
Wind Speed
320°
North West

Wind Speed
Mostly Cloudy
Conditions
Pressure 1020.62 (hPa) - 30.14 (in)
Visibility 10.0 (mi) - 16.1 (km)

Current Conditions
KAVP
Location 6km (3.2mi)
Metar :KAVP 311554Z 32009G18KT 10SM BKN055 15/02 A3014 RMK AO2 SLP202 T01500017 $
Sun 31st May 10:54 am

Airport
  Metar Aviation API Data Provided by https://www.checkwx.com/ CSS/SVG/PHP scripts by weather34.com © 2015-2020